createdAt,value
2022-11-13T00:01:21.076Z,17.20
2022-11-13T00:03:47.938Z,17.20
2022-11-13T00:06:15.918Z,17.20
2022-11-13T00:08:42.966Z,17.20
2022-11-13T00:11:12.588Z,17.10
2022-11-13T00:13:39.449Z,17.20
2022-11-13T00:16:09.805Z,17.20
2022-11-13T00:18:37.065Z,17.20
2022-11-13T00:21:22.810Z,17.20
2022-11-13T00:23:50.146Z,17.20
2022-11-13T00:26:22.024Z,17.20
2022-11-13T00:28:57.580Z,17.10
2022-11-13T00:31:24.655Z,17.10
2022-11-13T00:36:38.173Z,17.10
2022-11-13T00:39:04.911Z,17.10
2022-11-13T00:41:31.740Z,17.10
2022-11-13T00:43:58.470Z,17.10
2022-11-13T00:46:25.245Z,17.10
2022-11-13T00:48:51.953Z,17.10
2022-11-13T00:51:19.653Z,17.10
2022-11-13T00:53:46.755Z,17.10
2022-11-13T00:56:13.469Z,17.10
2022-11-13T00:58:40.229Z,17.10
2022-11-13T01:01:13.146Z,17.10
2022-11-13T01:03:43.850Z,17.10
2022-11-13T01:06:17.790Z,17.10
2022-11-13T01:08:45.024Z,17.10
2022-11-13T01:11:14.954Z,17.10
2022-11-13T01:13:43.613Z,17.10
2022-11-13T01:16:12.369Z,17.10
2022-11-13T01:18:40.148Z,17.10
2022-11-13T01:21:28.666Z,17.10
2022-11-13T01:23:56.265Z,17.10
2022-11-13T01:26:28.633Z,17.00
2022-11-13T01:28:57.475Z,17.00
2022-11-13T01:31:28.326Z,17.00
2022-11-13T01:33:55.449Z,17.00
2022-11-13T01:36:27.716Z,17.00
2022-11-13T01:38:55.238Z,17.00
2022-11-13T01:41:26.210Z,17.00
2022-11-13T01:43:54.404Z,17.00
2022-11-13T01:47:01.484Z,17.00
2022-11-13T01:49:36.501Z,17.00
2022-11-13T01:52:11.348Z,17.00
2022-11-13T01:54:43.790Z,17.00
2022-11-13T01:57:11.606Z,17.00
2022-11-13T01:59:41.848Z,17.00
2022-11-13T02:02:08.785Z,17.00
2022-11-13T02:04:36.021Z,17.00
2022-11-13T02:07:07.641Z,17.00
2022-11-13T02:09:38.136Z,17.00
2022-11-13T02:12:07.326Z,17.00
2022-11-13T02:14:35.733Z,17.00
2022-11-13T02:17:06.382Z,16.90
2022-11-13T02:19:43.895Z,16.90
2022-11-13T02:22:14.467Z,17.00
2022-11-13T02:24:45.560Z,17.00
2022-11-13T02:27:25.828Z,16.90
2022-11-13T02:29:54.822Z,16.90
2022-11-13T02:32:21.715Z,16.90
2022-11-13T02:34:48.412Z,16.90
2022-11-13T02:37:15.266Z,16.90
2022-11-13T02:39:41.979Z,16.90
2022-11-13T02:42:08.707Z,16.90
2022-11-13T02:44:35.428Z,16.90
2022-11-13T02:47:02.129Z,16.90
2022-11-13T02:49:28.871Z,16.90
2022-11-13T02:51:55.594Z,16.90
2022-11-13T02:54:22.371Z,16.90
2022-11-13T02:56:49.549Z,16.90
2022-11-13T02:59:16.333Z,16.90
2022-11-13T03:01:43.155Z,16.90
2022-11-13T03:04:10.903Z,16.90
2022-11-13T03:06:37.745Z,16.90
2022-11-13T03:09:04.548Z,16.80
2022-11-13T03:11:31.315Z,16.90
2022-11-13T03:13:58.014Z,16.80
2022-11-13T03:16:24.753Z,16.90
2022-11-13T03:18:51.450Z,16.90
2022-11-13T03:21:18.209Z,16.80
2022-11-13T03:23:45.361Z,16.80
2022-11-13T03:26:15.309Z,16.80
2022-11-13T03:28:42.198Z,16.80
2022-11-13T03:31:08.986Z,16.80
2022-11-13T03:33:35.733Z,16.80
2022-11-13T03:36:02.461Z,16.80
2022-11-13T03:38:29.508Z,16.80
2022-11-13T03:40:56.846Z,16.80
2022-11-13T03:43:24.302Z,16.80
2022-11-13T03:45:51.350Z,16.80
2022-11-13T03:48:18.145Z,16.80
2022-11-13T03:50:48.660Z,16.80
2022-11-13T03:53:15.924Z,16.80
2022-11-13T03:55:43.352Z,16.80
2022-11-13T03:58:10.432Z,16.80
2022-11-13T04:00:39.158Z,16.80
2022-11-13T04:03:06.113Z,16.80
2022-11-13T04:05:33.603Z,16.80
2022-11-13T04:08:00.555Z,16.70
2022-11-13T04:10:27.370Z,16.80
2022-11-13T04:12:54.291Z,16.70
2022-11-13T04:15:21.150Z,16.70
2022-11-13T04:17:48.706Z,16.70
2022-11-13T04:20:16.199Z,16.70
2022-11-13T04:22:43.352Z,16.70
2022-11-13T04:25:10.074Z,16.70
2022-11-13T04:27:39.319Z,16.70
2022-11-13T04:30:06.725Z,16.70
2022-11-13T04:32:33.534Z,16.70
2022-11-13T04:35:00.283Z,16.70
2022-11-13T04:37:27.013Z,16.70
2022-11-13T04:39:53.790Z,16.70
2022-11-13T04:42:39.004Z,16.70
2022-11-13T04:45:06.192Z,16.70
2022-11-13T04:47:32.924Z,16.70
2022-11-13T04:49:59.679Z,16.70
2022-11-13T04:52:28.867Z,16.70
2022-11-13T04:54:55.781Z,16.70
2022-11-13T04:57:22.822Z,16.70
2022-11-13T04:59:49.677Z,16.70
2022-11-13T05:02:16.770Z,16.70
2022-11-13T05:04:43.554Z,16.70
2022-11-13T05:07:10.270Z,16.70
2022-11-13T05:09:37.029Z,16.60
2022-11-13T05:12:07.866Z,16.60
2022-11-13T05:14:39.483Z,16.60
2022-11-13T05:17:08.851Z,16.70
2022-11-13T05:19:35.791Z,16.60
2022-11-13T05:22:03.067Z,16.60
2022-11-13T05:24:30.094Z,16.60
2022-11-13T05:26:56.854Z,16.60
2022-11-13T05:29:23.901Z,16.60
2022-11-13T05:31:50.652Z,16.60
2022-11-13T05:34:17.859Z,16.60
2022-11-13T05:36:44.603Z,16.60
2022-11-13T05:39:11.440Z,16.60
2022-11-13T05:41:38.227Z,16.60
2022-11-13T05:44:07.350Z,16.60
2022-11-13T05:46:34.076Z,16.60
2022-11-13T05:49:02.011Z,16.60
2022-11-13T05:51:31.532Z,16.60
2022-11-13T05:53:58.951Z,16.50
2022-11-13T05:56:34.337Z,16.50
2022-11-13T05:59:02.460Z,16.50
2022-11-13T06:01:32.258Z,16.50
2022-11-13T06:04:00.091Z,16.50
2022-11-13T06:06:27.976Z,16.50
2022-11-13T06:08:56.666Z,16.50
2022-11-13T06:11:25.196Z,16.50
2022-11-13T06:13:53.234Z,16.50
2022-11-13T06:16:30.744Z,16.50
2022-11-13T06:18:59.967Z,16.50
2022-11-13T06:21:30.824Z,16.50
2022-11-13T06:23:58.632Z,16.50
2022-11-13T06:26:28.217Z,16.50
2022-11-13T06:28:55.416Z,16.50
2022-11-13T06:31:26.449Z,16.50
2022-11-13T06:33:53.986Z,16.50
2022-11-13T06:36:24.478Z,16.50
2022-11-13T06:38:51.709Z,16.40
2022-11-13T06:41:20.941Z,16.50
2022-11-13T06:43:47.869Z,16.50
2022-11-13T06:46:20.159Z,16.50
2022-11-13T06:48:47.554Z,16.50
2022-11-13T06:51:25.719Z,16.40
2022-11-13T06:53:53.123Z,16.40
2022-11-13T06:56:20.536Z,16.40
2022-11-13T06:58:47.300Z,16.40
2022-11-13T07:01:19.571Z,16.40
2022-11-13T07:03:46.438Z,16.40
2022-11-13T07:06:19.515Z,16.40
2022-11-13T07:08:47.018Z,16.40
2022-11-13T07:11:16.647Z,16.40
2022-11-13T07:13:43.990Z,16.40
2022-11-13T07:16:19.076Z,16.40
2022-11-13T07:18:53.294Z,16.40
2022-11-13T07:21:21.055Z,16.40
2022-11-13T07:23:49.707Z,16.40
2022-11-13T07:26:16.691Z,16.40
2022-11-13T07:28:43.878Z,16.40
2022-11-13T07:31:12.651Z,16.40
2022-11-13T07:33:39.418Z,16.30
2022-11-13T07:36:06.702Z,16.30
2022-11-13T07:38:33.425Z,16.30
2022-11-13T07:41:01.005Z,16.30
2022-11-13T07:43:28.012Z,16.30
2022-11-13T07:45:55.460Z,16.30
2022-11-13T07:48:23.101Z,16.30
2022-11-13T07:50:50.807Z,16.30
2022-11-13T07:53:20.659Z,16.40
2022-11-13T07:55:48.155Z,16.30
2022-11-13T07:58:15.111Z,16.30
2022-11-13T08:00:41.954Z,16.30
2022-11-13T08:03:17.995Z,16.30
2022-11-13T08:05:44.763Z,16.30
2022-11-13T08:08:14.375Z,16.30
2022-11-13T08:10:41.449Z,16.30
2022-11-13T08:13:10.227Z,16.30
2022-11-13T08:15:37.295Z,16.30
2022-11-13T08:18:05.269Z,16.30
2022-11-13T08:20:32.359Z,16.30
2022-11-13T08:23:00.568Z,16.30
2022-11-13T08:25:28.785Z,16.30
2022-11-13T08:27:55.868Z,16.30
2022-11-13T08:30:24.605Z,16.30
2022-11-13T08:32:51.382Z,16.30
2022-11-13T08:35:19.889Z,16.30
2022-11-13T08:37:47.673Z,16.30
2022-11-13T08:40:14.708Z,16.40
2022-11-13T08:42:41.502Z,16.40
2022-11-13T08:45:08.863Z,16.40
2022-11-13T08:47:36.000Z,16.40
2022-11-13T08:50:03.584Z,16.40
2022-11-13T08:52:30.347Z,16.40
2022-11-13T08:54:57.088Z,16.40
2022-11-13T08:57:23.860Z,16.50
2022-11-13T08:59:50.672Z,16.50
2022-11-13T09:02:17.435Z,16.50
2022-11-13T09:04:44.195Z,16.50
2022-11-13T09:07:11.626Z,16.50
2022-11-13T09:09:38.631Z,16.50
2022-11-13T09:12:08.003Z,16.60
2022-11-13T09:14:35.744Z,16.60
2022-11-13T09:17:02.580Z,16.60
2022-11-13T09:19:29.351Z,16.60
2022-11-13T09:21:56.076Z,16.60
2022-11-13T09:24:25.163Z,16.70
2022-11-13T09:26:51.984Z,16.70
2022-11-13T09:29:18.791Z,16.70
2022-11-13T09:31:45.632Z,16.70
2022-11-13T09:34:15.639Z,16.70
2022-11-13T09:36:42.371Z,16.80
2022-11-13T09:39:09.163Z,16.80
2022-11-13T09:41:47.646Z,16.80
2022-11-13T09:44:31.462Z,16.90
2022-11-13T09:47:25.929Z,16.90
2022-11-13T09:50:00.165Z,16.90
2022-11-13T09:52:43.740Z,17.00
2022-11-13T09:55:19.737Z,17.00
2022-11-13T09:58:06.920Z,17.00
2022-11-13T10:00:35.115Z,17.00
2022-11-13T10:03:59.805Z,17.00
2022-11-13T10:06:31.957Z,17.10
2022-11-13T10:09:03.699Z,17.10
2022-11-13T10:11:54.905Z,17.10
2022-11-13T10:14:23.960Z,17.00
2022-11-13T10:17:02.675Z,17.00
2022-11-13T10:19:42.795Z,17.10
2022-11-13T10:22:32.912Z,17.00
2022-11-13T10:25:13.835Z,17.10
2022-11-13T10:27:40.694Z,17.00
2022-11-13T10:30:16.241Z,17.10
2022-11-13T10:32:44.952Z,17.00
2022-11-13T10:35:23.785Z,17.10
2022-11-13T10:38:11.415Z,17.10
2022-11-13T10:40:40.255Z,17.10
2022-11-13T10:43:23.012Z,17.10
2022-11-13T10:46:05.226Z,17.10
2022-11-13T10:48:35.183Z,17.10
2022-11-13T10:51:25.592Z,17.10
2022-11-13T10:53:53.651Z,17.10
2022-11-13T10:56:26.499Z,17.10
2022-11-13T10:59:20.143Z,17.10
2022-11-13T11:01:47.929Z,17.10
2022-11-13T11:04:24.052Z,17.10
2022-11-13T11:07:19.765Z,17.10
2022-11-13T11:09:39.109Z,17.10
2022-11-13T11:12:24.264Z,17.10
2022-11-13T11:14:57.200Z,17.10
2022-11-13T11:17:41.857Z,17.20
2022-11-13T11:20:47.662Z,17.20
2022-11-13T11:23:39.690Z,17.20
2022-11-13T11:26:18.294Z,17.20
2022-11-13T11:28:47.585Z,17.20
2022-11-13T11:31:27.483Z,17.20
2022-11-13T11:34:04.311Z,17.20
2022-11-13T11:36:38.286Z,17.20
2022-11-13T11:39:19.955Z,17.20
2022-11-13T11:41:55.860Z,17.20
2022-11-13T11:44:59.681Z,17.20
2022-11-13T11:47:27.567Z,17.20
2022-11-13T11:49:55.270Z,17.20
2022-11-13T11:52:21.941Z,17.20
2022-11-13T11:55:22.026Z,17.20
2022-11-13T11:57:57.894Z,17.20
2022-11-13T12:00:25.992Z,17.20
2022-11-13T12:03:07.593Z,17.20
2022-11-13T12:05:56.549Z,17.20
2022-11-13T12:09:00.138Z,17.20
2022-11-13T12:11:34.418Z,17.20
2022-11-13T12:14:29.329Z,17.20
2022-11-13T12:17:30.071Z,17.20
2022-11-13T12:20:26.127Z,17.20
2022-11-13T12:23:16.561Z,17.20
2022-11-13T12:25:52.661Z,17.20
2022-11-13T12:28:49.749Z,17.20
2022-11-13T12:31:28.440Z,17.20
2022-11-13T12:34:13.921Z,17.20
2022-11-13T12:36:41.119Z,17.20
2022-11-13T12:39:22.772Z,17.20
2022-11-13T12:41:59.534Z,17.20
2022-11-13T12:44:30.697Z,17.20
2022-11-13T12:47:01.213Z,17.20
2022-11-13T12:49:34.209Z,17.20
2022-11-13T12:52:04.027Z,17.20
2022-11-13T12:54:36.896Z,17.20
2022-11-13T12:57:30.814Z,17.20
2022-11-13T13:00:00.608Z,17.30
2022-11-13T13:02:45.084Z,17.30
2022-11-13T13:05:28.742Z,17.30
2022-11-13T13:08:07.200Z,17.30
2022-11-13T13:10:56.808Z,17.30
2022-11-13T13:13:28.089Z,17.30
2022-11-13T13:16:04.234Z,17.30
2022-11-13T13:18:36.438Z,17.30
2022-11-13T13:21:10.391Z,17.30
2022-11-13T13:23:39.260Z,17.30
2022-11-13T13:26:25.761Z,17.30
2022-11-13T13:29:14.766Z,17.30
2022-11-13T13:31:59.113Z,17.30
2022-11-13T13:35:12.426Z,17.30
2022-11-13T13:38:03.792Z,17.40
2022-11-13T13:41:01.773Z,17.40
2022-11-13T13:43:54.289Z,17.40
2022-11-13T13:46:24.998Z,17.40
2022-11-13T13:48:56.904Z,17.40
2022-11-13T13:51:40.370Z,17.40
2022-11-13T13:54:08.797Z,17.40
2022-11-13T13:56:41.218Z,17.40
2022-11-13T13:59:35.984Z,17.40
2022-11-13T14:02:15.930Z,17.40
2022-11-13T14:04:48.256Z,17.40
2022-11-13T14:07:26.256Z,17.40
2022-11-13T14:10:28.653Z,17.40
2022-11-13T14:12:56.574Z,17.40
2022-11-13T14:15:27.222Z,17.40
2022-11-13T14:18:22.610Z,17.40
2022-11-13T14:20:54.248Z,17.40
2022-11-13T14:23:39.945Z,17.40
2022-11-13T14:26:07.183Z,17.40
2022-11-13T14:28:59.833Z,17.40
2022-11-13T14:31:44.779Z,17.40
2022-11-13T14:34:16.503Z,17.50
2022-11-13T14:36:44.426Z,17.40
2022-11-13T14:39:26.475Z,17.40
2022-11-13T14:41:59.167Z,17.50
2022-11-13T14:44:34.622Z,17.50
2022-11-13T14:47:06.924Z,17.40
2022-11-13T14:49:36.619Z,17.40
2022-11-13T14:52:04.473Z,17.40
2022-11-13T14:54:53.084Z,17.40
2022-11-13T14:57:19.325Z,17.40
2022-11-13T14:59:46.075Z,17.40
2022-11-13T15:02:13.401Z,17.40
2022-11-13T15:04:40.754Z,17.40
2022-11-13T15:07:45.453Z,17.40
2022-11-13T15:10:15.403Z,17.40
2022-11-13T15:12:42.619Z,17.40
2022-11-13T15:15:15.888Z,17.50
2022-11-13T15:17:44.113Z,17.40
2022-11-13T15:20:15.331Z,17.40
2022-11-13T15:22:42.402Z,17.40
2022-11-13T15:25:14.632Z,17.40
2022-11-13T15:27:43.396Z,17.40
2022-11-13T15:30:11.455Z,17.50
2022-11-13T15:32:38.212Z,17.40
2022-11-13T15:35:07.740Z,17.40
2022-11-13T15:37:34.953Z,17.40
2022-11-13T15:40:02.127Z,17.30
2022-11-13T15:42:32.204Z,17.30
2022-11-13T15:44:59.026Z,17.30
2022-11-13T15:47:35.455Z,17.30
2022-11-13T15:50:20.186Z,17.30
2022-11-13T15:52:49.939Z,17.40
2022-11-13T15:55:23.746Z,17.40
2022-11-13T15:57:51.177Z,17.40
2022-11-13T16:00:40.440Z,17.40
2022-11-13T16:03:11.755Z,17.40
2022-11-13T16:05:38.880Z,17.40
2022-11-13T16:08:12.812Z,17.40
2022-11-13T16:10:39.620Z,17.40
2022-11-13T16:13:06.330Z,17.40
2022-11-13T16:15:34.288Z,17.40
2022-11-13T16:18:01.814Z,17.40
2022-11-13T16:20:28.528Z,17.40
2022-11-13T16:22:55.329Z,17.40
2022-11-13T16:25:22.756Z,17.40
2022-11-13T16:27:50.853Z,17.40
2022-11-13T16:30:28.661Z,17.40
2022-11-13T16:32:55.438Z,17.40
2022-11-13T16:35:22.214Z,17.40
2022-11-13T16:37:49.113Z,17.40
2022-11-13T16:40:22.818Z,17.40
2022-11-13T16:42:49.869Z,17.40
2022-11-13T16:45:16.636Z,17.40
2022-11-13T16:47:43.603Z,17.40
2022-11-13T16:50:39.571Z,17.40
2022-11-13T16:53:07.499Z,17.40
2022-11-13T16:55:38.669Z,17.40
2022-11-13T16:58:05.733Z,17.40
2022-11-13T17:00:32.528Z,17.40
2022-11-13T17:02:59.319Z,17.40
2022-11-13T17:05:26.401Z,17.40
2022-11-13T17:07:57.973Z,17.40
2022-11-13T17:10:31.263Z,17.40
2022-11-13T17:12:59.064Z,17.40
2022-11-13T17:15:25.932Z,17.40
2022-11-13T17:17:57.322Z,17.40
2022-11-13T17:20:24.544Z,17.40
2022-11-13T17:22:51.246Z,17.40
2022-11-13T17:25:18.839Z,17.40
2022-11-13T17:27:45.609Z,17.40
2022-11-13T17:30:13.235Z,17.40
2022-11-13T17:32:40.054Z,17.40
2022-11-13T17:35:07.200Z,17.40
2022-11-13T17:37:34.262Z,17.40
2022-11-13T17:40:00.992Z,17.40
2022-11-13T17:42:28.765Z,17.40
2022-11-13T17:44:55.798Z,17.40
2022-11-13T17:47:22.569Z,17.30
2022-11-13T17:49:49.500Z,17.30
2022-11-13T17:52:16.393Z,17.30
2022-11-13T17:54:45.261Z,17.30
2022-11-13T17:57:12.910Z,17.30
2022-11-13T17:59:40.225Z,17.40
2022-11-13T18:02:08.373Z,17.40
2022-11-13T18:04:35.084Z,17.40
2022-11-13T18:07:01.941Z,17.40
2022-11-13T18:09:28.764Z,17.30
2022-11-13T18:11:55.528Z,17.30
2022-11-13T18:14:22.237Z,17.30
2022-11-13T18:16:48.937Z,17.30
2022-11-13T18:19:15.915Z,17.30
2022-11-13T18:21:49.250Z,17.30
2022-11-13T18:24:18.809Z,17.30
2022-11-13T18:26:45.951Z,17.30
2022-11-13T18:29:12.728Z,17.30
2022-11-13T18:31:39.527Z,17.30
2022-11-13T18:34:07.677Z,17.30
2022-11-13T18:36:34.958Z,17.30
2022-11-13T18:39:03.247Z,17.30
2022-11-13T18:41:30.635Z,17.30
2022-11-13T18:43:57.441Z,17.30
2022-11-13T18:46:24.468Z,17.30
2022-11-13T18:48:51.489Z,17.30
2022-11-13T18:51:27.669Z,17.30
2022-11-13T18:53:55.412Z,17.20
2022-11-13T18:56:27.808Z,17.30
2022-11-13T18:58:56.136Z,17.20
2022-11-13T19:01:23.370Z,17.20
2022-11-13T19:04:16.090Z,17.20
2022-11-13T19:06:38.862Z,17.20
2022-11-13T19:09:12.463Z,17.20
2022-11-13T19:11:40.032Z,17.20
2022-11-13T19:14:07.591Z,17.20
2022-11-13T19:16:37.447Z,17.20
2022-11-13T19:19:15.106Z,17.20
2022-11-13T19:21:42.053Z,17.20
2022-11-13T19:24:09.862Z,17.20
2022-11-13T19:26:37.023Z,17.20
2022-11-13T19:29:03.768Z,17.20
2022-11-13T19:31:33.366Z,17.20
2022-11-13T19:34:03.056Z,17.20
2022-11-13T19:36:31.473Z,17.20
2022-11-13T19:38:58.761Z,17.20
2022-11-13T19:41:27.183Z,17.20
2022-11-13T19:43:57.274Z,17.10
2022-11-13T19:46:24.104Z,17.10
2022-11-13T19:48:53.088Z,17.10
2022-11-13T19:51:24.735Z,17.10
2022-11-13T19:53:57.414Z,17.10
2022-11-13T19:56:25.485Z,17.10
2022-11-13T19:58:52.832Z,17.10
2022-11-13T20:01:24.831Z,17.10
2022-11-13T20:04:04.602Z,17.10
2022-11-13T20:06:32.958Z,17.10
2022-11-13T20:09:00.614Z,17.10
2022-11-13T20:11:27.860Z,17.10
2022-11-13T20:13:56.400Z,17.10
2022-11-13T20:16:23.777Z,17.10
2022-11-13T20:18:51.222Z,17.10
2022-11-13T20:21:30.344Z,17.10
2022-11-13T20:23:58.524Z,17.00
2022-11-13T20:26:25.361Z,17.00
2022-11-13T20:28:52.140Z,17.00
2022-11-13T20:31:21.192Z,17.00
2022-11-13T20:33:52.707Z,17.00
2022-11-13T20:36:19.883Z,17.00
2022-11-13T20:38:55.285Z,17.00
2022-11-13T20:41:23.991Z,17.00
2022-11-13T20:43:52.767Z,17.00
2022-11-13T20:46:20.893Z,17.00
2022-11-13T20:48:47.736Z,17.00
2022-11-13T20:51:23.309Z,17.00
2022-11-13T20:53:53.567Z,17.00
2022-11-13T20:56:22.079Z,17.00
2022-11-13T20:58:49.072Z,17.00
2022-11-13T21:01:19.042Z,17.00
2022-11-13T21:03:46.899Z,17.00
2022-11-13T21:06:17.731Z,17.00
2022-11-13T21:08:45.165Z,17.00
2022-11-13T21:11:22.059Z,16.90
2022-11-13T21:13:50.408Z,16.90
2022-11-13T21:16:18.082Z,16.90
2022-11-13T21:18:45.605Z,16.90
2022-11-13T21:21:23.036Z,16.90
2022-11-13T21:23:49.856Z,16.90
2022-11-13T21:26:17.027Z,16.90
2022-11-13T21:28:44.638Z,16.90
2022-11-13T21:31:17.142Z,16.90
2022-11-13T21:33:45.234Z,16.90
2022-11-13T21:36:18.172Z,16.90
2022-11-13T21:38:47.716Z,16.90
2022-11-13T21:41:21.418Z,16.90
2022-11-13T21:43:51.494Z,16.90
2022-11-13T21:46:19.309Z,16.90
2022-11-13T21:48:46.949Z,16.90
2022-11-13T21:51:13.750Z,16.90
2022-11-13T21:53:40.876Z,16.90
2022-11-13T21:56:12.696Z,16.90
2022-11-13T21:58:42.385Z,16.80
2022-11-13T22:01:10.299Z,16.80
2022-11-13T22:03:37.012Z,16.80
2022-11-13T22:06:20.426Z,16.80
2022-11-13T22:09:14.990Z,16.80
2022-11-13T22:11:42.175Z,16.80
2022-11-13T22:14:09.736Z,16.80
2022-11-13T22:16:39.306Z,16.80
2022-11-13T22:19:09.689Z,16.80
2022-11-13T22:21:36.520Z,16.80
2022-11-13T22:24:03.830Z,16.80
2022-11-13T22:26:31.712Z,16.80
2022-11-13T22:29:00.162Z,16.80
2022-11-13T22:31:28.834Z,16.80
2022-11-13T22:33:55.915Z,16.80
2022-11-13T22:36:25.385Z,16.80
2022-11-13T22:38:52.631Z,16.80
2022-11-13T22:41:23.563Z,16.80
2022-11-13T22:43:53.074Z,16.80
2022-11-13T22:46:23.096Z,16.80
2022-11-13T22:48:54.377Z,16.80
2022-11-13T22:51:29.840Z,16.80
2022-11-13T22:54:02.835Z,16.70
2022-11-13T22:56:31.689Z,16.80
2022-11-13T22:58:59.900Z,16.80
2022-11-13T23:01:28.149Z,16.70
2022-11-13T23:03:56.648Z,16.70
2022-11-13T23:06:26.659Z,16.70
2022-11-13T23:08:53.818Z,16.70
2022-11-13T23:11:30.166Z,16.70
2022-11-13T23:13:58.903Z,16.70
2022-11-13T23:16:27.643Z,16.70
2022-11-13T23:18:56.258Z,16.70
2022-11-13T23:21:23.541Z,16.70
2022-11-13T23:23:50.263Z,16.70
2022-11-13T23:26:17.994Z,16.70
2022-11-13T23:28:44.903Z,16.70
2022-11-13T23:31:11.954Z,16.70
2022-11-13T23:33:40.128Z,16.70
2022-11-13T23:36:08.722Z,16.70
2022-11-13T23:38:36.329Z,16.60
2022-11-13T23:41:03.515Z,16.70
2022-11-13T23:43:54.336Z,16.60
2022-11-13T23:46:17.860Z,16.60
2022-11-13T23:48:44.603Z,16.60
2022-11-13T23:51:11.357Z,16.60
2022-11-13T23:53:38.207Z,16.60
2022-11-13T23:56:05.318Z,16.60
2022-11-13T23:58:32.883Z,16.60
